createdAt,value
2016-06-02T00:00:08.563Z,0
2016-06-02T00:01:08.676Z,0
2016-06-02T00:02:08.507Z,0
2016-06-02T00:03:08.525Z,0
2016-06-02T00:04:08.527Z,0
2016-06-02T00:05:08.702Z,0
2016-06-02T00:06:08.704Z,0
2016-06-02T00:07:08.410Z,0
2016-06-02T00:08:08.726Z,0
2016-06-02T00:09:08.729Z,0
2016-06-02T00:10:08.998Z,0
2016-06-02T00:11:08.578Z,0
2016-06-02T00:12:08.736Z,0
2016-06-02T00:13:08.584Z,0
2016-06-02T00:14:08.758Z,0
2016-06-02T00:15:08.761Z,0
2016-06-02T00:16:08.778Z,0
2016-06-02T00:17:08.766Z,0
2016-06-02T00:18:08.769Z,0
2016-06-02T00:19:08.631Z,0
2016-06-02T00:20:08.789Z,0
2016-06-02T00:21:08.792Z,0
2016-06-02T00:22:08.811Z,0
2016-06-02T00:23:08.641Z,0
2016-06-02T00:24:08.660Z,0
2016-06-02T00:25:08.913Z,0
2016-06-02T00:26:08.821Z,0
2016-06-02T00:27:08.668Z,0
2016-06-02T00:28:08.842Z,0
2016-06-02T00:29:08.844Z,0
2016-06-02T00:30:08.848Z,0
2016-06-02T00:31:08.866Z,0
2016-06-02T00:32:08.712Z,0
2016-06-02T00:33:08.855Z,0
2016-06-02T00:34:08.874Z,0
2016-06-02T00:35:08.721Z,0
2016-06-02T00:36:08.879Z,0
2016-06-02T00:37:08.882Z,0
2016-06-02T00:38:08.744Z,0
2016-06-02T00:39:08.763Z,0
2016-06-02T00:40:09.234Z,0
2016-06-02T00:41:08.909Z,0
2016-06-02T00:42:08.911Z,0
2016-06-02T00:43:08.929Z,0
2016-06-02T00:44:08.932Z,0
2016-06-02T00:45:08.935Z,0
2016-06-02T00:46:08.781Z,0
2016-06-02T00:47:08.956Z,0
2016-06-02T00:48:08.818Z,0
2016-06-02T00:49:08.805Z,0
2016-06-02T00:50:08.808Z,0
2016-06-02T00:51:08.983Z,0
2016-06-02T00:52:08.970Z,0
2016-06-02T00:53:08.988Z,0
2016-06-02T00:54:09.006Z,0
2016-06-02T00:55:09.790Z,0
2016-06-02T00:56:08.996Z,0
2016-06-02T00:57:09.014Z,0
2016-06-02T00:58:09.016Z,0
2016-06-02T00:59:09.019Z,0
2016-06-02T01:00:09.038Z,0
2016-06-02T01:01:09.041Z,0
2016-06-02T01:02:09.043Z,0
2016-06-02T01:03:09.046Z,0
2016-06-02T01:04:09.049Z,0
2016-06-02T01:05:09.066Z,0
2016-06-02T01:06:09.069Z,0
2016-06-02T01:07:08.963Z,0
2016-06-02T01:08:09.137Z,0
2016-06-02T01:29:58.088Z,0
2016-06-02T01:30:57.887Z,0
2016-06-02T01:31:57.889Z,0
2016-06-02T01:32:57.752Z,0
2016-06-02T01:33:57.911Z,0
2016-06-02T01:34:57.913Z,0
2016-06-02T01:35:57.916Z,0
2016-06-02T01:36:57.763Z,0
2016-06-02T01:37:57.937Z,0
2016-06-02T01:38:57.940Z,0
2016-06-02T01:39:58.177Z,0
2016-06-02T01:40:57.961Z,0
2016-06-02T01:41:57.807Z,0
2016-06-02T01:42:57.966Z,0
2016-06-02T01:43:57.969Z,0
2016-06-02T01:44:57.971Z,0
2016-06-02T01:45:57.990Z,0
2016-06-02T01:46:57.976Z,0
2016-06-02T01:47:57.995Z,0
2016-06-02T01:48:57.842Z,0
2016-06-02T01:49:57.687Z,0
2016-06-02T01:50:58.019Z,0
2016-06-02T01:51:58.006Z,0
2016-06-02T01:52:58.025Z,0
2016-06-02T01:53:58.027Z,0
2016-06-02T01:54:57.858Z,0
2016-06-02T01:55:58.078Z,0
2016-06-02T01:56:58.051Z,0
2016-06-02T01:57:57.896Z,0
2016-06-02T01:58:58.056Z,0
2016-06-02T01:59:58.058Z,0
2016-06-02T02:00:57.921Z,0
2016-06-02T02:01:58.126Z,0
2016-06-02T02:03:12.191Z,0
2016-06-02T02:03:58.085Z,0
2016-06-02T02:04:57.947Z,0
2016-06-02T02:05:58.121Z,0
2016-06-02T02:06:58.108Z,0
2016-06-02T02:07:58.126Z,0
2016-06-02T02:08:58.130Z,0
2016-06-02T02:09:58.883Z,0
2016-06-02T02:10:58.010Z,0
2016-06-02T02:11:58.138Z,0
2016-06-02T02:12:58.141Z,0
2016-06-02T02:13:58.143Z,0
2016-06-02T02:14:58.161Z,0
2016-06-02T02:15:58.179Z,0
2016-06-02T02:16:58.182Z,0
2016-06-02T02:17:58.029Z,0
2016-06-02T02:18:58.172Z,0
2016-06-02T02:19:58.190Z,0
2016-06-02T02:20:58.192Z,0
2016-06-02T02:21:58.196Z,0
2016-06-02T02:22:58.214Z,0
2016-06-02T02:23:58.217Z,0
2016-06-02T02:24:58.969Z,0
2016-06-02T02:25:58.379Z,0
2016-06-02T02:26:58.224Z,0
2016-06-02T02:27:58.227Z,0
2016-06-02T02:28:58.247Z,0
2016-06-02T02:29:58.249Z,0
2016-06-02T02:30:58.126Z,0
2016-06-02T02:31:58.113Z,0
2016-06-02T02:32:58.272Z,0
2016-06-02T02:33:58.119Z,0
2016-06-02T02:34:58.277Z,0
2016-06-02T02:35:57.983Z,0
2016-06-02T02:36:58.283Z,0
2016-06-02T02:37:58.302Z,0
2016-06-02T02:38:58.304Z,0
2016-06-02T02:39:58.353Z,0
2016-06-02T02:40:58.200Z,0
2016-06-02T02:41:58.327Z,0
2016-06-02T02:42:58.174Z,0
2016-06-02T02:43:58.176Z,0
2016-06-02T02:44:58.367Z,0
2016-06-02T02:45:58.354Z,0
2016-06-02T02:46:58.356Z,0
2016-06-02T02:47:58.360Z,0
2016-06-02T02:48:58.050Z,0
2016-06-02T02:49:58.364Z,0
2016-06-02T02:50:58.368Z,0
2016-06-02T02:51:58.417Z,0
2016-06-02T02:52:58.420Z,0
2016-06-02T02:53:58.406Z,0
2016-06-02T02:54:58.816Z,0
2016-06-02T02:55:58.459Z,0
2016-06-02T02:56:58.415Z,0
2016-06-02T02:57:58.261Z,0
2016-06-02T02:58:58.108Z,0
2016-06-02T02:59:58.423Z,0
2016-06-02T03:00:58.441Z,0
2016-06-02T03:01:58.444Z,0
2016-06-02T03:02:58.447Z,0
2016-06-02T03:03:58.309Z,0
2016-06-02T03:04:58.514Z,0
2016-06-02T03:05:58.313Z,0
2016-06-02T03:06:58.473Z,4
2016-06-02T03:07:58.476Z,4
2016-06-02T03:08:58.338Z,4
2016-06-02T03:09:58.825Z,0
2016-06-02T03:10:58.452Z,4
2016-06-02T03:11:58.518Z,4
2016-06-02T03:12:58.521Z,4
2016-06-02T03:13:58.524Z,8
2016-06-02T03:14:58.541Z,8
2016-06-02T03:15:58.388Z,8
2016-06-02T03:16:58.546Z,12
2016-06-02T03:17:58.596Z,16
2016-06-02T03:18:58.551Z,16
2016-06-02T03:19:58.398Z,16
2016-06-02T03:20:58.557Z,16
2016-06-02T03:21:58.576Z,20
2016-06-02T03:22:58.594Z,20
2016-06-02T03:23:58.612Z,24
2016-06-02T03:24:59.053Z,24
2016-06-02T03:25:58.445Z,28
2016-06-02T03:26:58.605Z,28
2016-06-02T03:27:58.608Z,32
2016-06-02T03:28:58.650Z,36
2016-06-02T03:29:58.663Z,40
2016-06-02T03:30:58.706Z,40
2016-06-02T03:31:58.750Z,36
2016-06-02T03:32:58.450Z,32
2016-06-02T03:33:58.790Z,36
2016-06-02T03:34:58.803Z,40
2016-06-02T03:35:58.815Z,44
2016-06-02T03:36:58.670Z,44
2016-06-02T03:37:58.682Z,48
2016-06-02T03:38:58.861Z,48
2016-06-02T03:39:59.350Z,48
2016-06-02T03:41:00.715Z,60
2016-06-02T03:41:58.878Z,64
2016-06-02T03:42:58.726Z,68
2016-06-02T03:43:58.590Z,76
2016-06-02T03:44:58.906Z,84
2016-06-02T03:45:58.754Z,88
2016-06-02T03:46:58.913Z,84
2016-06-02T03:47:58.762Z,84
2016-06-02T03:48:58.921Z,80
2016-06-02T03:49:58.940Z,72
2016-06-02T03:50:58.958Z,76
2016-06-02T03:51:58.961Z,72
2016-06-02T03:52:58.964Z,72
2016-06-02T03:53:58.967Z,72
2016-06-02T03:54:59.361Z,76
2016-06-02T03:55:59.192Z,84
2016-06-02T03:56:58.993Z,88
2016-06-02T03:57:58.980Z,96
2016-06-02T03:58:58.998Z,100
2016-06-02T03:59:59.001Z,108
2016-06-02T04:00:58.722Z,112
2016-06-02T04:01:59.023Z,112
2016-06-02T04:02:58.868Z,112
2016-06-02T04:03:58.871Z,112
2016-06-02T04:04:59.030Z,108
2016-06-02T04:05:58.876Z,116
2016-06-02T04:06:58.895Z,120
2016-06-02T04:07:59.054Z,128
2016-06-02T04:08:59.072Z,144
2016-06-02T04:09:59.731Z,152
2016-06-02T04:10:59.077Z,148
2016-06-02T04:11:59.080Z,136
2016-06-02T04:12:59.098Z,128
2016-06-02T04:13:59.101Z,124
2016-06-02T04:14:59.088Z,128
2016-06-02T04:15:59.107Z,124
2016-06-02T04:16:59.109Z,128
2016-06-02T04:17:59.112Z,136
2016-06-02T04:18:59.115Z,136
2016-06-02T04:19:59.023Z,136
2016-06-02T04:20:59.120Z,132
2016-06-02T04:21:59.138Z,136
2016-06-02T04:22:59.141Z,136
2016-06-02T04:23:58.987Z,136
2016-06-02T04:25:00.146Z,140
2016-06-02T04:25:59.259Z,144
2016-06-02T04:26:59.011Z,156
2016-06-02T04:27:59.170Z,176
2016-06-02T04:28:59.188Z,196
2016-06-02T04:29:59.191Z,224
2016-06-02T04:30:59.194Z,232
2016-06-02T04:31:59.212Z,244
2016-06-02T04:32:59.214Z,276
2016-06-02T04:33:59.233Z,428
2016-06-02T04:34:59.220Z,504
2016-06-02T04:35:59.222Z,620
2016-06-02T04:36:59.069Z,808
2016-06-02T04:37:59.087Z,744
2016-06-02T04:38:59.231Z,760
2016-06-02T04:39:59.639Z,816
2016-06-02T04:40:59.267Z,844
2016-06-02T04:41:59.270Z,852
2016-06-02T04:42:59.273Z,936
2016-06-02T04:43:59.291Z,960
2016-06-02T04:44:59.294Z,1104
2016-06-02T04:45:59.296Z,888
2016-06-02T04:46:59.300Z,916
2016-06-02T04:47:59.146Z,1312
2016-06-02T04:48:59.305Z,1356
2016-06-02T04:49:59.307Z,1472
2016-06-02T04:50:59.326Z,1316
2016-06-02T04:51:59.328Z,1016
2016-06-02T04:52:59.174Z,1192
2016-06-02T04:53:59.349Z,1180
2016-06-02T04:54:59.368Z,1740
2016-06-02T04:56:00.042Z,1456
2016-06-02T04:56:59.357Z,1424
2016-06-02T04:57:59.220Z,1388
2016-06-02T04:58:59.378Z,1360
2016-06-02T04:59:59.381Z,1264
2016-06-02T05:00:59.415Z,1168
2016-06-02T05:01:59.402Z,1056
2016-06-02T05:02:59.405Z,1184
2016-06-02T05:03:59.407Z,1496
2016-06-02T05:04:59.410Z,1492
2016-06-02T05:05:59.475Z,1660
2016-06-02T05:06:59.415Z,1960
2016-06-02T05:07:59.433Z,3196
2016-06-02T05:08:59.436Z,5888
2016-06-02T05:10:00.048Z,7172
2016-06-02T05:10:59.911Z,7696
2016-06-02T05:11:59.319Z,8292
2016-06-02T05:12:59.478Z,3956
2016-06-02T05:13:59.481Z,5376
2016-06-02T05:14:59.484Z,5684
2016-06-02T05:15:59.518Z,3576
2016-06-02T05:16:59.505Z,2540
2016-06-02T05:17:59.507Z,7684
2016-06-02T05:18:59.527Z,6260
2016-06-02T05:19:59.513Z,4880
2016-06-02T05:20:59.531Z,2948
2016-06-02T05:21:59.238Z,1796
2016-06-02T05:22:59.537Z,1320
2016-06-02T05:23:59.555Z,1460
2016-06-02T05:25:05.307Z,1964
2016-06-02T05:25:59.498Z,2508
2016-06-02T05:26:59.563Z,2448
2016-06-02T05:27:59.582Z,4668
2016-06-02T05:28:59.584Z,4176
2016-06-02T05:29:59.587Z,2460
2016-06-02T05:30:59.668Z,2268
2016-06-02T05:31:59.592Z,1916
2016-06-02T05:32:59.626Z,2056
2016-06-02T05:33:59.629Z,1848
2016-06-02T05:34:59.632Z,2240
2016-06-02T05:35:59.634Z,2876
2016-06-02T05:36:59.637Z,4040
2016-06-02T05:37:59.640Z,3236
2016-06-02T05:38:59.642Z,2820
2016-06-02T05:39:59.520Z,2368
2016-06-02T05:41:00.492Z,2472
2016-06-02T05:41:59.681Z,2788
2016-06-02T05:42:59.684Z,3056
2016-06-02T05:43:59.702Z,7420
2016-06-02T05:44:59.689Z,12768
2016-06-02T05:45:59.551Z,5440
2016-06-02T05:46:59.711Z,9620
2016-06-02T05:47:59.713Z,6352
2016-06-02T05:48:59.575Z,5620
2016-06-02T05:49:59.719Z,7076
2016-06-02T05:50:59.737Z,6916
2016-06-02T05:51:59.740Z,4740
2016-06-02T05:52:59.773Z,9916
2016-06-02T05:53:59.605Z,14880
2016-06-02T05:54:59.779Z,15872
2016-06-02T05:55:59.641Z,8720
2016-06-02T05:56:59.784Z,10492
2016-06-02T05:57:59.646Z,15680
2016-06-02T05:58:59.649Z,11572
2016-06-02T05:59:59.652Z,15904
2016-06-02T06:00:59.826Z,17728
2016-06-02T06:01:59.845Z,17696
2016-06-02T06:02:59.691Z,17984
2016-06-02T06:03:59.850Z,18432
2016-06-02T06:04:59.696Z,18080
2016-06-02T06:05:59.714Z,17984
2016-06-02T06:06:59.718Z,16800
2016-06-02T06:07:59.892Z,17632
2016-06-02T06:08:59.957Z,18720
2016-06-02T06:10:00.554Z,19776
2016-06-02T06:11:00.541Z,19200
2016-06-02T06:11:59.919Z,18176
2016-06-02T06:12:59.765Z,19264
2016-06-02T06:13:59.783Z,20864
2016-06-02T06:14:59.958Z,22400
2016-06-02T06:15:59.961Z,23040
2016-06-02T06:16:59.963Z,24160
2016-06-02T06:17:59.966Z,23936
2016-06-02T06:18:59.984Z,22208
2016-06-02T06:20:00.003Z,24928
2016-06-02T06:20:59.850Z,25184
2016-06-02T06:22:00.023Z,26304
2016-06-02T06:22:59.870Z,25696
2016-06-02T06:24:00.045Z,23296
2016-06-02T06:25:00.579Z,18624
2016-06-02T06:25:59.910Z,19360
2016-06-02T06:27:00.069Z,19456
2016-06-02T06:28:00.071Z,9688
2016-06-02T06:29:00.090Z,9936
2016-06-02T06:29:59.936Z,14256
2016-06-02T06:31:00.110Z,19072
2016-06-02T06:32:00.113Z,10148
2016-06-02T06:33:00.132Z,21504
2016-06-02T06:34:00.134Z,26272
2016-06-02T06:35:00.152Z,5592
2016-06-02T06:36:00.155Z,5040
2016-06-02T06:37:00.158Z,24448
2016-06-02T06:38:00.176Z,27872
2016-06-02T06:39:00.023Z,15260
2016-06-02T06:40:00.540Z,6168
2016-06-02T06:41:01.106Z,15844
2016-06-02T06:42:00.218Z,14580
2016-06-02T06:43:00.205Z,22240
2016-06-02T06:44:00.223Z,5780
2016-06-02T06:45:00.085Z,4052
2016-06-02T06:46:00.245Z,3216
2016-06-02T06:47:00.294Z,5200
2016-06-02T06:48:00.266Z,3536
2016-06-02T06:49:00.268Z,4516
2016-06-02T06:50:00.286Z,7388
2016-06-02T06:51:00.289Z,3352
2016-06-02T06:52:00.135Z,2640
2016-06-02T06:53:00.310Z,2020
2016-06-02T06:54:00.313Z,1996
2016-06-02T06:55:00.706Z,1824
2016-06-02T06:56:00.224Z,1824
2016-06-02T06:57:00.352Z,2176
2016-06-02T06:58:00.198Z,2744
2016-06-02T06:59:00.357Z,6376
2016-06-02T07:00:00.360Z,9208
2016-06-02T07:01:00.379Z,6192
2016-06-02T07:02:00.381Z,7924
2016-06-02T07:03:00.384Z,12608
2016-06-02T07:04:00.402Z,21600
2016-06-02T07:05:00.404Z,28864
2016-06-02T07:06:00.423Z,30816
2016-06-02T07:07:00.441Z,33184
2016-06-02T07:08:00.428Z,31968
2016-06-02T07:09:00.447Z,31456
2016-06-02T07:10:00.309Z,31616
2016-06-02T07:11:01.077Z,33536
2016-06-02T07:12:00.471Z,33216
2016-06-02T07:13:00.333Z,34368
2016-06-02T07:14:00.491Z,34432
2016-06-02T07:15:00.354Z,35424
2016-06-02T07:16:00.512Z,2648
2016-06-02T07:17:00.515Z,2808
2016-06-02T07:18:00.378Z,2244
2016-06-02T07:19:00.553Z,3284
2016-06-02T07:20:00.538Z,2744
2016-06-02T07:21:00.558Z,3228
2016-06-02T07:22:00.561Z,1508
2016-06-02T07:23:00.578Z,1200
2016-06-02T07:24:00.441Z,1144
2016-06-02T07:25:00.912Z,1128
2016-06-02T07:26:00.461Z,1072
2016-06-02T07:27:00.464Z,1064
2016-06-02T07:28:00.624Z,1040
2016-06-02T07:29:00.672Z,1056
2016-06-02T07:30:00.660Z,1268
2016-06-02T07:31:00.647Z,1412
2016-06-02T07:32:00.493Z,1564
2016-06-02T07:33:00.652Z,1828
2016-06-02T07:34:00.671Z,8784
2016-06-02T07:35:00.674Z,2056
2016-06-02T07:36:00.676Z,2528
2016-06-02T07:37:00.694Z,3864
2016-06-02T07:38:00.696Z,4672
2016-06-02T07:39:00.559Z,4236
2016-06-02T07:40:00.843Z,4736
2016-06-02T07:41:01.205Z,4404
2016-06-02T07:42:00.739Z,4576
2016-06-02T07:43:00.429Z,4652
2016-06-02T07:44:00.759Z,4460
2016-06-02T07:45:00.762Z,4172
2016-06-02T07:46:00.609Z,4024
2016-06-02T07:47:00.784Z,3824
2016-06-02T07:48:00.631Z,4292
2016-06-02T07:49:00.633Z,4336
2016-06-02T07:50:00.792Z,3976
2016-06-02T07:51:00.810Z,3920
2016-06-02T07:52:00.656Z,3528
2016-06-02T07:53:00.675Z,2996
2016-06-02T07:54:00.865Z,3496
2016-06-02T07:55:01.508Z,3676
2016-06-02T07:56:00.855Z,3468
2016-06-02T07:57:00.857Z,2696
2016-06-02T07:58:00.875Z,1976
2016-06-02T07:59:00.863Z,2120
2016-06-02T08:00:00.881Z,2068
2016-06-02T08:01:00.884Z,1836
2016-06-02T08:02:00.590Z,1908
2016-06-02T08:03:01.107Z,2204
2016-06-02T08:04:00.923Z,2552
2016-06-02T08:05:00.926Z,3040
2016-06-02T08:06:00.928Z,2968
2016-06-02T08:07:00.947Z,3484
2016-06-02T08:08:00.949Z,2804
2016-06-02T08:09:00.951Z,3184
2016-06-02T08:10:01.033Z,3240
2016-06-02T08:11:00.989Z,2904
2016-06-02T08:12:01.022Z,3360
2016-06-02T08:13:00.682Z,3456
2016-06-02T08:14:00.997Z,3260
2016-06-02T08:15:01.045Z,3260
2016-06-02T08:16:00.689Z,2840
2016-06-02T08:17:01.005Z,2608
2016-06-02T08:18:01.008Z,2612
2016-06-02T08:19:00.885Z,2732
2016-06-02T08:20:01.045Z,2484
2016-06-02T08:21:01.062Z,2536
2016-06-02T08:22:01.050Z,2512
2016-06-02T08:23:01.052Z,2540
2016-06-02T08:24:00.914Z,2840
2016-06-02T08:25:01.073Z,2828
2016-06-02T08:26:01.764Z,3220
2016-06-02T08:27:01.094Z,3024
2016-06-02T08:28:00.941Z,2812
2016-06-02T08:29:01.099Z,2576
2016-06-02T08:30:01.118Z,1872
2016-06-02T08:31:01.121Z,1820
2016-06-02T08:32:01.124Z,1952
2016-06-02T08:33:01.126Z,1952
2016-06-02T08:34:01.160Z,1836
2016-06-02T08:35:01.147Z,1824
2016-06-02T08:36:01.010Z,2192
2016-06-02T08:37:01.168Z,2100
2016-06-02T08:38:01.014Z,2180
2016-06-02T08:39:01.173Z,2224
2016-06-02T08:40:01.035Z,2428
2016-06-02T08:41:01.037Z,2360
2016-06-02T08:42:01.212Z,2124
2016-06-02T08:43:00.746Z,2196
2016-06-02T08:44:01.077Z,2004
2016-06-02T08:45:01.220Z,1708
2016-06-02T08:46:01.317Z,1556
2016-06-02T08:47:01.242Z,1592
2016-06-02T08:48:01.228Z,2000
2016-06-02T08:49:01.247Z,2160
2016-06-02T08:50:01.265Z,2308
2016-06-02T08:51:01.111Z,2356
2016-06-02T08:52:01.271Z,2536
2016-06-02T08:53:01.133Z,2696
2016-06-02T08:54:01.136Z,2876
2016-06-02T08:55:01.044Z,3148
2016-06-02T08:56:01.172Z,3644
2016-06-02T08:57:01.283Z,3196
2016-06-02T08:58:01.302Z,2760
2016-06-02T08:59:01.305Z,2632
2016-06-02T09:00:01.167Z,2576
2016-06-02T09:01:01.327Z,2580
2016-06-02T09:02:01.329Z,2656
2016-06-02T09:03:01.332Z,2724
2016-06-02T09:04:01.318Z,2704
2016-06-02T09:05:01.338Z,2608
2016-06-02T09:06:01.340Z,2488
2016-06-02T09:07:01.186Z,2268
2016-06-02T09:08:01.346Z,2292
2016-06-02T09:09:01.348Z,2364
2016-06-02T09:10:01.366Z,2540
2016-06-02T09:11:01.619Z,2492
2016-06-02T09:12:01.418Z,2568
2016-06-02T09:13:01.358Z,2676
2016-06-02T09:14:01.376Z,2436
2016-06-02T09:15:01.427Z,2284
2016-06-02T09:16:01.226Z,2492
2016-06-02T09:17:01.401Z,2700
2016-06-02T09:18:01.231Z,2892
2016-06-02T09:19:01.406Z,2840
2016-06-02T09:20:01.409Z,2860
2016-06-02T09:21:01.427Z,2972
2016-06-02T09:22:01.415Z,3052
2016-06-02T09:23:01.417Z,3128
2016-06-02T09:24:01.264Z,3072
2016-06-02T09:25:02.234Z,2964
2016-06-02T09:26:01.846Z,2868
2016-06-02T09:27:01.428Z,2900
2016-06-02T09:28:01.447Z,2936
2016-06-02T09:29:01.449Z,2820
2016-06-02T09:30:01.452Z,2736
2016-06-02T09:31:01.297Z,2548
2016-06-02T09:32:01.457Z,2420
2016-06-02T09:33:01.475Z,2324
2016-06-02T09:34:01.462Z,2264
2016-06-02T09:35:01.480Z,2156
2016-06-02T09:36:01.483Z,2152
2016-06-02T09:37:01.471Z,2192
2016-06-02T09:38:01.488Z,2228
2016-06-02T09:39:01.351Z,2352
2016-06-02T09:40:01.228Z,2536
2016-06-02T09:41:01.497Z,2752
2016-06-02T09:42:01.343Z,2896
2016-06-02T09:43:01.346Z,3024
2016-06-02T09:44:01.348Z,3352
2016-06-02T09:45:01.351Z,3544
2016-06-02T09:46:01.525Z,3232
2016-06-02T09:47:01.373Z,2836
2016-06-02T09:48:01.375Z,2800
2016-06-02T09:49:01.534Z,2812
2016-06-02T09:50:01.381Z,2720
2016-06-02T09:51:01.539Z,2716
2016-06-02T09:52:01.542Z,3068
2016-06-02T09:53:01.559Z,3124
2016-06-02T09:54:01.548Z,3004
2016-06-02T09:55:01.425Z,3000
2016-06-02T09:56:01.553Z,3028
2016-06-02T09:57:01.570Z,2880
2016-06-02T09:58:01.558Z,2704
2016-06-02T09:59:01.576Z,2624
2016-06-02T10:00:01.579Z,2612
2016-06-02T10:01:01.581Z,3428
2016-06-02T10:02:01.584Z,2636
2016-06-02T10:03:01.587Z,2332
2016-06-02T10:04:01.433Z,2132
2016-06-02T10:05:01.608Z,2172
2016-06-02T10:06:01.611Z,2508
2016-06-02T10:07:01.613Z,2432
2016-06-02T10:08:01.457Z,2576
2016-06-02T10:09:01.460Z,3012
2016-06-02T10:10:01.477Z,2344
2016-06-02T10:11:01.655Z,2016
2016-06-02T10:12:01.657Z,1836
2016-06-02T10:13:01.485Z,1800
2016-06-02T10:14:01.535Z,1880
2016-06-02T10:15:01.632Z,2012
2016-06-02T10:16:01.651Z,1980
2016-06-02T10:17:01.653Z,2076
2016-06-02T10:18:01.656Z,2064
2016-06-02T10:19:01.642Z,2000
2016-06-02T10:20:01.677Z,1996
2016-06-02T10:21:01.679Z,1936
2016-06-02T10:22:01.510Z,1888
2016-06-02T10:23:01.670Z,1832
2016-06-02T10:24:01.579Z,1704
2016-06-02T10:25:01.831Z,1676
2016-06-02T10:26:02.914Z,1732
2016-06-02T10:27:01.695Z,1840
2016-06-02T10:28:01.699Z,1860
2016-06-02T10:29:01.544Z,1836
2016-06-02T10:30:01.548Z,1812
2016-06-02T10:31:01.566Z,1840
2016-06-02T10:32:01.741Z,1928
2016-06-02T10:33:01.711Z,1980
2016-06-02T10:34:01.730Z,1972
2016-06-02T10:35:01.561Z,2012
2016-06-02T10:36:01.752Z,2116
2016-06-02T10:37:01.566Z,2252
2016-06-02T10:38:01.757Z,2444
2016-06-02T10:39:01.744Z,2744
2016-06-02T10:40:01.793Z,2584
2016-06-02T10:41:02.265Z,2628
2016-06-02T10:42:01.751Z,2576
2016-06-02T10:43:01.770Z,2736
2016-06-02T10:44:01.757Z,3184
2016-06-02T10:45:01.760Z,3420
2016-06-02T10:46:01.762Z,3364
2016-06-02T10:47:02.093Z,3068
2016-06-02T10:48:01.080Z,3140
2016-06-02T10:49:01.787Z,2496
2016-06-02T10:50:01.773Z,2348
2016-06-02T10:51:01.620Z,2328
2016-06-02T10:52:01.795Z,2316
2016-06-02T10:53:01.329Z,2284
2016-06-02T10:54:01.784Z,2156
2016-06-02T10:55:01.646Z,2052
2016-06-02T10:56:02.555Z,2040
2016-06-02T10:57:01.667Z,2080
2016-06-02T10:58:01.825Z,2104
2016-06-02T10:59:01.673Z,2104
2016-06-02T11:00:01.675Z,2048
2016-06-02T11:01:01.678Z,1920
2016-06-02T11:02:01.867Z,1864
2016-06-02T11:03:01.839Z,1840
2016-06-02T11:04:01.858Z,1816
2016-06-02T11:05:01.548Z,1760
2016-06-02T11:06:01.847Z,1724
2016-06-02T11:07:01.866Z,1724
2016-06-02T11:08:01.556Z,1736
2016-06-02T11:09:01.856Z,1792
2016-06-02T11:10:01.843Z,1816
2016-06-02T11:11:02.704Z,1912
2016-06-02T11:12:01.879Z,1988
2016-06-02T11:13:01.726Z,2100
2016-06-02T11:14:01.884Z,2212
2016-06-02T11:15:01.950Z,2336
2016-06-02T11:16:02.062Z,2424
2016-06-02T11:17:01.893Z,2428
2016-06-02T11:18:01.896Z,2388
2016-06-02T11:19:01.758Z,2388
2016-06-02T11:20:02.135Z,2408
2016-06-02T11:21:01.918Z,2372
2016-06-02T11:22:01.921Z,2400
2016-06-02T11:23:01.924Z,2792
2016-06-02T11:24:01.927Z,2368
2016-06-02T11:25:02.304Z,2536
2016-06-02T11:26:02.089Z,2404
2016-06-02T11:27:01.966Z,2332
2016-06-02T11:28:01.812Z,2296
2016-06-02T11:29:01.956Z,2220
2016-06-02T11:30:01.787Z,2212
2016-06-02T11:31:01.946Z,2188
2016-06-02T11:32:01.964Z,2192
2016-06-02T11:33:01.810Z,2216
2016-06-02T11:34:01.970Z,2236
2016-06-02T11:35:01.816Z,2328
2016-06-02T11:36:01.975Z,2272
2016-06-02T11:37:01.994Z,2488
2016-06-02T11:38:01.964Z,2804
2016-06-02T11:39:01.983Z,2368
2016-06-02T11:40:04.095Z,2096
2016-06-02T11:41:02.019Z,2008
2016-06-02T11:42:02.007Z,1808
2016-06-02T11:43:01.838Z,1848
2016-06-02T11:44:02.013Z,2032
2016-06-02T11:45:01.999Z,2136
2016-06-02T11:46:01.861Z,2284
2016-06-02T11:47:02.083Z,2328
2016-06-02T11:48:01.866Z,2480
2016-06-02T11:49:01.869Z,2932
2016-06-02T11:50:02.028Z,2836
2016-06-02T11:51:01.874Z,2368
2016-06-02T11:52:02.049Z,2396
2016-06-02T11:53:01.912Z,2512
2016-06-02T11:54:02.071Z,2408
2016-06-02T11:55:02.229Z,2288
2016-06-02T11:56:02.326Z,2200
2016-06-02T11:57:01.907Z,2164
2016-06-02T11:58:02.065Z,2116
2016-06-02T11:59:02.068Z,2076
2016-06-02T12:00:02.070Z,2060
2016-06-02T12:01:02.090Z,2036
2016-06-02T12:02:02.076Z,2140
2016-06-02T12:03:02.095Z,2064
2016-06-02T12:04:02.097Z,2100
2016-06-02T12:05:02.100Z,2196
2016-06-02T12:06:02.102Z,2236
2016-06-02T12:07:02.105Z,2336
2016-06-02T12:08:02.108Z,2496
2016-06-02T12:09:02.127Z,2836
2016-06-02T12:10:02.755Z,2764
2016-06-02T12:11:02.460Z,2832
2016-06-02T12:12:02.134Z,2712
2016-06-02T12:13:01.981Z,2668
2016-06-02T12:14:01.983Z,2564
2016-06-02T12:15:01.830Z,2172
2016-06-02T12:16:02.239Z,2436
2016-06-02T12:17:02.054Z,2120
2016-06-02T12:18:02.151Z,1600
2016-06-02T12:19:02.137Z,1588
2016-06-02T12:20:01.999Z,1500
2016-06-02T12:21:02.159Z,1580
2016-06-02T12:22:02.177Z,1816
2016-06-02T12:23:02.164Z,1984
2016-06-02T12:24:02.182Z,1908
2016-06-02T12:25:02.045Z,2180
2016-06-02T12:26:02.673Z,2012
2016-06-02T12:27:02.190Z,2056
2016-06-02T12:28:02.178Z,2384
2016-06-02T12:29:02.196Z,2208
2016-06-02T12:30:02.198Z,2164
2016-06-02T12:31:02.201Z,2156
2016-06-02T12:32:02.203Z,1884
2016-06-02T12:33:02.051Z,1824
2016-06-02T12:34:02.053Z,1968
2016-06-02T12:35:02.065Z,1984
2016-06-02T12:36:02.096Z,1892
2016-06-02T12:37:02.142Z,1652
2016-06-02T12:38:02.312Z,1720
2016-06-02T12:39:02.359Z,1692
2016-06-02T12:40:02.227Z,1664
2016-06-02T12:41:03.020Z,1304
2016-06-02T12:42:02.408Z,1268
2016-06-02T12:43:02.421Z,1264
2016-06-02T12:44:02.262Z,1432
2016-06-02T12:45:02.428Z,1256
2016-06-02T12:46:02.434Z,1256
2016-06-02T12:47:02.285Z,1124
2016-06-02T12:48:02.462Z,1152
2016-06-02T12:49:02.343Z,1196
2016-06-02T12:50:02.302Z,1256
2016-06-02T12:51:02.509Z,1344
2016-06-02T12:52:02.465Z,1496
2016-06-02T12:53:02.469Z,1468
2016-06-02T12:54:02.192Z,1452
2016-06-02T12:55:02.571Z,1412
2016-06-02T12:56:02.683Z,1416
2016-06-02T12:57:02.499Z,1432
2016-06-02T12:58:02.502Z,1324
2016-06-02T12:59:02.490Z,1232
2016-06-02T13:00:02.492Z,1320
2016-06-02T13:01:02.512Z,1392
2016-06-02T13:02:02.499Z,1528
2016-06-02T13:03:02.501Z,1540
2016-06-02T13:04:02.504Z,1544
2016-06-02T13:05:02.507Z,1540
2016-06-02T13:06:02.510Z,1588
2016-06-02T13:07:02.543Z,1560
2016-06-02T13:08:02.375Z,1588
2016-06-02T13:09:02.534Z,1616
2016-06-02T13:10:02.756Z,1656
2016-06-02T13:11:02.540Z,1676
2016-06-02T13:12:02.526Z,1660
2016-06-02T13:13:02.373Z,1640
2016-06-02T13:14:02.548Z,1636
2016-06-02T13:15:02.535Z,1640
2016-06-02T13:16:02.443Z,1672
2016-06-02T13:18:02.528Z,1756
2016-06-02T13:19:02.389Z,1800
2016-06-02T13:20:02.611Z,1828
2016-06-02T13:21:02.394Z,1888
2016-06-02T13:22:02.553Z,1908
2016-06-02T13:23:02.572Z,1920
2016-06-02T13:24:02.403Z,1860
2016-06-02T13:25:02.421Z,1728
2016-06-02T13:26:02.439Z,1656
2016-06-02T13:27:02.566Z,1648
2016-06-02T13:28:02.585Z,1652
2016-06-02T13:29:02.682Z,1632
2016-06-02T13:30:02.575Z,1608
2016-06-02T13:31:02.437Z,1568
2016-06-02T13:32:02.596Z,1556
2016-06-02T13:33:02.614Z,1600
2016-06-02T13:34:02.602Z,1740
2016-06-02T13:35:02.604Z,1768
2016-06-02T13:36:02.607Z,1804
2016-06-02T13:37:02.641Z,1864
2016-06-02T13:38:02.627Z,1892
2016-06-02T13:39:02.630Z,1944
2016-06-02T13:40:02.976Z,1968
2016-06-02T13:41:03.402Z,1884
2016-06-02T13:42:02.623Z,1876
2016-06-02T13:43:02.641Z,1908
2016-06-02T13:44:02.644Z,1856
2016-06-02T13:45:02.646Z,1800
2016-06-02T13:46:02.492Z,1820
2016-06-02T13:47:02.652Z,1872
2016-06-02T13:48:02.498Z,1956
2016-06-02T13:49:02.673Z,1880
2016-06-02T13:50:02.691Z,1876
2016-06-02T13:51:02.506Z,1828
2016-06-02T13:52:02.712Z,1796
2016-06-02T13:53:02.512Z,1800
2016-06-02T13:54:02.530Z,1772
2016-06-02T13:55:03.080Z,1780
2016-06-02T13:56:03.411Z,1812
2016-06-02T13:57:02.694Z,1780
2016-06-02T13:58:02.713Z,1824
2016-06-02T13:59:02.716Z,1764
2016-06-02T14:00:02.561Z,1764